Lanaken, Belgium
Current Conditions -  °F | °C
As of 4:55 PM on Friday 28 Nov 2014 (Local Time) from EHBK Reporting Station
Clear Clear  
Wind Chill: 38°   Ceiling: Unl
Heat Index: 45°   Visibility: 5mi
Dew Point: 39°   Wind: 14mph
Humidity: 81%   Direction: 80°E
Pressure: 29.77"   Gusts: NA
Location:  50.89°N, 5.65°E
Report Text: EHBK 281555Z AUTO 08012KT 050V120 8000 NCD 07/04 Q1008 NOSIG
Loading
Personal Weather Stations






























Interactive Weather Map New forecast layout! Learn more

10-Day Weather Forecast

Advertisements
Track Severe Weather on mobile